Time;durP1;ratioP1;P1;durP2;ratioP2;P2;SDS_P1;SDS_P2;PMS_P1;PMS_P2;Temp;Humidity;BMP_temperature;BMP_pressure;BME280_temperature;BME280_humidity;BME280_pressure;Samples;Min_cycle;Max_cycle;Signal;HPM_P1;HPM_P2
2023/10/25 00:01:58;;;;;;;6.97;2.08;;;;;;;-146.27;82.55;83153.63;5026521;28;20026;-74
2023/10/25 00:04:24;;;;;;;8.48;2.22;;;;;;;-146.27;82.79;83199.84;5027453;28;20033;-74
2023/10/25 00:06:49;;;;;;;8.75;1.95;;;;;;;-146.27;82.94;83167.69;5028828;28;20056;-74
2023/10/25 00:09:14;;;;;;;7.22;2.35;;;;;;;-146.27;83.12;83221.94;5019319;28;20029;-74
2023/10/25 00:11:40;;;;;;;6.70;2.00;;;;;;;-146.27;83.42;83189.78;5028658;28;20043;-74
2023/10/25 00:14:05;;;;;;;9.25;2.58;;;;;;;-146.27;83.35;83209.88;5037409;28;20029;-74
2023/10/25 00:16:30;;;;;;;6.07;2.20;;;;;;;-146.27;83.33;83248.06;5035913;28;20037;-74
2023/10/25 00:18:56;;;;;;;7.57;2.80;;;;;;;-146.27;83.21;83223.94;5041214;28;20079;-74
2023/10/25 00:21:21;;;;;;;9.10;3.35;;;;;;;-146.27;83.58;83256.09;5027577;28;20606;-73
2023/10/25 00:23:46;;;;;;;8.40;3.20;;;;;;;-146.27;83.58;83238.03;5035806;28;20512;-74
2023/10/25 00:26:12;;;;;;;13.35;3.42;;;;;;;-146.27;83.91;83272.19;5030629;28;20393;-73
2023/10/25 00:28:37;;;;;;;11.25;3.38;;;;;;;-146.27;83.89;83282.22;5030603;28;20029;-69
2023/10/25 00:31:02;;;;;;;10.57;3.45;;;;;;;-146.27;84.12;83280.22;5027103;28;20029;-69
2023/10/25 00:33:28;;;;;;;10.23;3.65;;;;;;;-146.27;84.43;83296.28;5032387;28;20074;-69
2023/10/25 00:35:53;;;;;;;11.52;4.20;;;;;;;-146.27;84.55;83296.28;5024688;28;20033;-70
2023/10/25 00:38:19;;;;;;;11.02;4.22;;;;;;;-146.27;84.71;83314.38;5029895;28;20029;-70
2023/10/25 00:40:44;;;;;;;12.00;4.95;;;;;;;-146.27;84.42;83268.16;5042032;28;20024;-69
2023/10/25 00:43:16;;;;;;;8.23;4.22;;;;;;;-146.27;84.43;83274.19;5036038;28;20021;-71
2023/10/25 00:46:03;;;;;;;15.00;4.63;;;;;;;-146.27;84.64;83294.28;5027748;28;20029;-70
2023/10/25 00:48:29;;;;;;;12.13;4.65;;;;;;;-146.27;84.53;83272.19;5019858;28;20017;-70
2023/10/25 00:50:56;;;;;;;11.07;4.75;;;;;;;-146.27;84.67;83300.31;5021840;28;20485;-70
2023/10/25 00:53:24;;;;;;;10.32;4.18;;;;;;;-146.27;84.41;83234.00;5023088;28;20033;-69
2023/10/25 00:55:52;;;;;;;10.55;4.47;;;;;;;-146.27;84.39;83290.25;5019335;28;20743;-69
2023/10/25 00:58:18;;;;;;;7.00;4.28;;;;;;;-146.27;84.34;83272.19;5029913;28;20036;-69
2023/10/25 01:00:44;;;;;;;10.50;4.85;;;;;;;-146.27;84.42;83292.28;5029716;28;20033;-70
2023/10/25 01:03:11;;;;;;;8.48;4.18;;;;;;;-146.27;84.51;83272.19;5030690;28;20070;-71
2023/10/25 01:05:37;;;;;;;8.48;4.00;;;;;;;-146.27;85.13;83338.47;5024081;28;20454;-70
2023/10/25 01:08:03;;;;;;;11.52;4.55;;;;;;;-146.27;84.91;83330.44;5019589;28;20100;-71
2023/10/25 01:10:28;;;;;;;11.82;5.13;;;;;;;-146.27;84.86;83308.34;5032710;28;20113;-70
2023/10/25 01:12:54;;;;;;;14.30;5.35;;;;;;;-146.27;85.03;83332.44;5036620;28;20045;-72
2023/10/25 01:15:25;;;;;;;8.93;4.45;;;;;;;-146.27;85.16;83332.44;5032266;28;20491;-71
2023/10/25 01:17:50;;;;;;;9.52;4.50;;;;;;;-146.27;85.12;83268.16;5050742;28;20029;-69
2023/10/25 01:20:18;;;;;;;10.85;4.60;;;;;;;-146.27;85.57;83300.31;5032805;28;20040;-69
2023/10/25 01:22:44;;;;;;;17.92;5.03;;;;;;;-146.27;85.24;83290.25;5035084;28;20029;-71
2023/10/25 01:25:10;;;;;;;12.32;4.50;;;;;;;-146.27;85.62;83336.47;5028732;28;20044;-70
2023/10/25 01:27:35;;;;;;;11.88;5.07;;;;;;;-146.27;85.75;83306.34;5028666;28;20482;-70
2023/10/25 01:30:00;;;;;;;14.20;5.40;;;;;;;-146.27;85.50;83356.56;5040426;28;20020;-70
2023/10/25 01:32:26;;;;;;;14.07;5.18;;;;;;;-146.27;85.27;83302.31;5020391;28;20478;-70
2023/10/25 01:34:51;;;;;;;16.58;5.05;;;;;;;-146.27;85.29;83264.13;5019808;28;20494;-72
2023/10/25 01:37:17;;;;;;;10.38;5.38;;;;;;;-146.27;85.27;83288.25;5031974;28;20029;-71
2023/10/25 01:39:42;;;;;;;17.40;5.22;;;;;;;-146.27;85.94;83352.53;5028298;28;20103;-75
2023/10/25 01:42:08;;;;;;;10.77;4.93;;;;;;;-146.27;85.58;83336.47;5028983;28;20075;-76
2023/10/25 01:44:33;;;;;;;14.32;6.07;;;;;;;-146.27;85.36;83322.41;5025595;28;20026;-75
2023/10/25 01:46:59;;;;;;;9.13;5.25;;;;;;;-146.27;85.40;83290.25;5034665;28;20033;-75
2023/10/25 01:49:24;;;;;;;11.85;4.60;;;;;;;-146.27;85.47;83328.44;5025838;28;20414;-74
2023/10/25 01:51:49;;;;;;;11.82;4.85;;;;;;;-146.27;85.61;83324.41;5029772;28;20049;-75
2023/10/25 01:54:15;;;;;;;13.48;4.43;;;;;;;-146.27;85.53;83312.34;5025363;28;20029;-74
2023/10/25 01:56:40;;;;;;;10.27;4.82;;;;;;;-146.27;85.51;83328.44;5026908;28;20029;-74
2023/10/25 01:59:06;;;;;;;10.32;5.00;;;;;;;-146.27;85.68;83292.28;5034933;28;20029;-74
2023/10/25 02:01:31;;;;;;;9.57;4.50;;;;;;;-146.27;85.26;83316.38;5026767;28;20027;-75
2023/10/25 02:03:57;;;;;;;9.80;4.70;;;;;;;-146.27;85.52;83298.28;5015573;28;20058;-74
2023/10/25 02:06:23;;;;;;;14.57;4.78;;;;;;;-146.27;85.30;83310.34;5022009;28;20490;-74
2023/10/25 02:08:48;;;;;;;8.32;4.80;;;;;;;-146.27;85.45;83342.50;5035455;28;20082;-75
2023/10/25 02:11:15;;;;;;;6.97;4.72;;;;;;;-146.27;85.42;83324.41;5025272;28;20396;-74
2023/10/25 02:13:41;;;;;;;17.70;5.38;;;;;;;-146.27;85.48;83346.53;5027454;28;20052;-74
2023/10/25 02:16:16;;;;;;;17.45;5.03;;;;;;;-146.27;85.71;83356.56;5026530;28;20121;-74
2023/10/25 02:18:42;;;;;;;12.38;4.80;;;;;;;-146.27;85.45;83364.59;5025526;28;20030;-74
2023/10/25 02:21:09;;;;;;;11.35;4.85;;;;;;;-146.27;85.45;83348.53;5026944;28;20045;-74
2023/10/25 02:23:34;;;;;;;16.35;5.45;;;;;;;-146.27;85.41;83356.56;5035675;28;20045;-74
2023/10/25 02:25:59;;;;;;;9.77;4.95;;;;;;;-146.27;85.40;83348.53;5028318;28;20025;-75
2023/10/25 02:28:25;;;;;;;12.95;4.63;;;;;;;-146.27;85.38;83324.41;5031907;28;20113;-74
2023/10/25 02:30:50;;;;;;;8.48;4.22;;;;;;;-146.27;85.69;83352.53;5024324;28;20482;-74
2023/10/25 02:33:15;;;;;;;21.38;5.03;;;;;;;-146.27;85.58;83336.47;5034227;28;20602;-74
2023/10/25 02:35:41;;;;;;;13.48;4.65;;;;;;;-146.27;85.47;83352.53;5034184;28;20080;-75
2023/10/25 02:38:06;;;;;;;13.80;4.65;;;;;;;-146.27;85.32;83392.72;5024817;28;20116;-75
2023/10/25 02:40:31;;;;;;;12.35;4.90;;;;;;;-146.27;85.32;83356.56;5037623;28;20107;-74
2023/10/25 02:42:57;;;;;;;21.90;5.30;;;;;;;-146.27;85.25;83352.53;5029783;28;20048;-74
2023/10/25 02:45:22;;;;;;;15.95;5.03;;;;;;;-146.27;85.30;83374.66;5022564;28;20120;-74
2023/10/25 02:47:47;;;;;;;14.50;5.53;;;;;;;-146.27;85.36;83368.63;5030747;28;20057;-75
2023/10/25 02:50:13;;;;;;;12.32;5.07;;;;;;;-146.27;85.49;83402.78;5022798;28;20030;-71
2023/10/25 02:52:41;;;;;;;10.25;4.57;;;;;;;-146.27;85.43;83420.88;5030689;28;20033;-70
2023/10/25 02:55:07;;;;;;;11.82;5.22;;;;;;;-146.27;85.30;83418.84;5012951;28;20045;-70
2023/10/25 02:57:32;;;;;;;15.95;5.38;;;;;;;-146.27;85.15;83376.66;5025132;28;20052;-71
2023/10/25 02:59:58;;;;;;;11.10;5.03;;;;;;;-146.27;85.13;83388.72;5031153;28;20026;-70
2023/10/25 03:02:23;;;;;;;17.73;5.63;;;;;;;-146.27;85.18;83408.81;5030590;28;20037;-70
2023/10/25 03:04:48;;;;;;;9.40;4.68;;;;;;;-146.27;85.21;83404.78;5034828;28;20398;-70
2023/10/25 03:07:14;;;;;;;11.93;5.70;;;;;;;-146.27;85.24;83412.81;5022932;28;20483;-72
2023/10/25 03:09:39;;;;;;;11.30;4.80;;;;;;;-146.27;85.10;83424.88;5031810;28;20105;-70
2023/10/25 03:12:05;;;;;;;16.13;6.07;;;;;;;-146.27;85.06;83408.81;5030782;28;20048;-70
2023/10/25 03:14:30;;;;;;;17.35;5.55;;;;;;;-146.27;85.12;83374.66;5027626;28;20926;-72
2023/10/25 03:16:55;;;;;;;13.95;5.63;;;;;;;-146.27;85.08;83457.03;5029712;28;20037;-70
2023/10/25 03:19:21;;;;;;;11.85;6.13;;;;;;;-146.27;85.05;83380.69;5030578;28;20025;-71
2023/10/25 03:21:46;;;;;;;14.70;5.88;;;;;;;-146.27;85.37;83378.66;5044999;28;20112;-70
2023/10/25 03:24:11;;;;;;;11.45;6.20;;;;;;;-146.27;85.13;83406.78;5042218;28;20033;-70
2023/10/25 03:26:37;;;;;;;12.57;6.45;;;;;;;-146.27;85.10;83432.91;5041236;28;20029;-70
2023/10/25 03:29:02;;;;;;;19.48;7.07;;;;;;;-146.27;85.23;83442.97;5039805;28;20092;-71
2023/10/25 03:31:27;;;;;;;10.80;6.53;;;;;;;-146.27;85.20;83420.88;5029328;28;20036;-70
2023/10/25 03:33:53;;;;;;;15.80;6.10;;;;;;;-146.27;85.09;83432.91;5034224;28;20025;-71
2023/10/25 03:36:18;;;;;;;12.63;6.38;;;;;;;-146.27;85.17;83400.78;5031872;28;20021;-70
2023/10/25 03:38:43;;;;;;;12.20;6.82;;;;;;;-146.27;85.34;83410.81;5029259;28;21046;-70
2023/10/25 03:41:09;;;;;;;13.07;6.63;;;;;;;-146.27;85.22;83394.75;5036364;28;20083;-70
2023/10/25 03:43:35;;;;;;;12.80;6.95;;;;;;;-146.27;85.37;83475.13;5035114;28;20091;-71
2023/10/25 03:46:08;;;;;;;13.68;7.00;;;;;;;-146.27;85.36;83428.91;5034343;28;20028;-72
2023/10/25 03:48:34;;;;;;;13.33;6.50;;;;;;;-146.27;85.46;83420.88;5032651;28;20025;-71
2023/10/25 03:51:07;;;;;;;15.82;6.93;;;;;;;-146.27;85.50;83473.09;5021705;28;20485;-70
2023/10/25 03:53:33;;;;;;;16.92;7.57;;;;;;;-146.27;85.44;83469.09;5032248;28;20028;-70
2023/10/25 03:55:59;;;;;;;10.50;6.60;;;;;;;-146.27;85.32;83481.16;5024138;28;20061;-71
2023/10/25 03:58:25;;;;;;;17.90;6.88;;;;;;;-146.27;85.28;83440.94;5045395;28;20065;-74
2023/10/25 04:01:08;;;;;;;11.13;6.03;;;;;;;-146.27;85.57;83457.03;5031100;28;20076;-72
2023/10/25 04:03:34;;;;;;;14.82;6.63;;;;;;;-146.27;85.48;83436.94;5036379;28;20016;-71
2023/10/25 04:05:59;;;;;;;11.45;6.97;;;;;;;-146.27;85.64;83438.94;5035677;28;20025;-71
2023/10/25 04:08:25;;;;;;;15.30;7.53;;;;;;;-146.27;85.61;83453.00;5023691;28;20037;-73
2023/10/25 04:10:51;;;;;;;13.60;5.97;;;;;;;-146.27;85.65;83469.09;5031851;28;20396;-71
2023/10/25 04:13:17;;;;;;;9.57;6.50;;;;;;;-146.27;85.89;83436.94;5036725;28;20040;-71
2023/10/25 04:15:53;;;;;;;20.75;7.47;;;;;;;-146.27;86.08;83426.88;5021859;28;20048;-71
2023/10/25 04:18:18;;;;;;;13.07;6.90;;;;;;;-146.27;85.83;83438.94;5027467;28;20502;-70
2023/10/25 04:20:43;;;;;;;13.95;6.53;;;;;;;-146.27;85.95;83457.03;5030029;28;20025;-70
2023/10/25 04:23:09;;;;;;;12.02;6.60;;;;;;;-146.27;85.87;83430.91;5030224;28;20465;-70
2023/10/25 04:25:34;;;;;;;14.52;6.82;;;;;;;-146.27;85.70;83481.16;5023634;28;20397;-71
2023/10/25 04:27:59;;;;;;;12.60;6.35;;;;;;;-146.27;85.48;83479.13;5028609;28;20482;-71
2023/10/25 04:30:25;;;;;;;14.13;6.60;;;;;;;-146.27;85.81;83481.16;5029314;28;20037;-71
2023/10/25 04:32:50;;;;;;;18.38;6.60;;;;;;;-146.27;85.64;83483.16;5025756;28;20029;-71
2023/10/25 04:35:17;;;;;;;19.85;8.23;;;;;;;-146.27;85.86;83479.13;5027801;28;20036;-71
2023/10/25 04:37:42;;;;;;;16.80;6.50;;;;;;;-146.27;85.84;83473.09;5028831;28;20029;-71
2023/10/25 04:40:08;;;;;;;9.57;6.38;;;;;;;-146.27;85.83;83410.81;5034585;28;20396;-70
2023/10/25 04:42:34;;;;;;;12.07;6.43;;;;;;;-146.27;85.64;83473.09;5031735;28;20040;-70
2023/10/25 04:44:59;;;;;;;15.73;7.53;;;;;;;-146.27;85.63;83461.06;5032601;28;20555;-70
2023/10/25 04:47:24;;;;;;;14.73;6.95;;;;;;;-146.27;85.44;83440.94;5037120;28;20412;-71
2023/10/25 04:49:50;;;;;;;9.90;6.63;;;;;;;-146.27;85.83;83495.22;5026578;28;20539;-70
2023/10/25 04:52:16;;;;;;;15.10;7.85;;;;;;;-146.27;85.94;83471.09;5031763;28;20029;-70
2023/10/25 04:54:43;;;;;;;14.18;6.97;;;;;;;-146.27;85.83;83451.00;5027530;28;20028;-70
2023/10/25 04:57:08;;;;;;;10.38;6.35;;;;;;;-146.27;85.71;83442.97;5030544;28;20033;-72
2023/10/25 04:59:34;;;;;;;12.80;6.95;;;;;;;-146.27;85.61;83434.94;5032602;28;20034;-71
2023/10/25 05:01:59;;;;;;;15.45;7.28;;;;;;;-146.27;85.68;83440.94;5039145;28;20021;-71
2023/10/25 05:04:24;;;;;;;13.05;6.53;;;;;;;-146.27;85.52;83513.28;5032193;28;20581;-70
2023/10/25 05:06:50;;;;;;;15.70;6.50;;;;;;;-146.27;85.34;83457.03;5032025;28;20109;-70
2023/10/25 05:09:16;;;;;;;12.60;6.18;;;;;;;-146.27;85.19;83467.06;5018673;28;20105;-70
2023/10/25 05:11:54;;;;;;;17.40;7.60;;;;;;;-146.27;85.26;83473.09;5025040;28;20030;-70
2023/10/25 05:14:19;;;;;;;13.27;6.88;;;;;;;-146.27;85.42;83485.16;5032243;28;20036;-71
2023/10/25 05:16:45;;;;;;;17.55;7.30;;;;;;;-146.27;85.32;83461.06;5031823;28;20421;-70
2023/10/25 05:19:11;;;;;;;10.30;5.68;;;;;;;-146.27;85.37;83388.72;5032651;28;20068;-70
2023/10/25 05:21:41;;;;;;;14.43;6.88;;;;;;;-146.27;85.26;83485.16;5024018;28;20014;-70
2023/10/25 05:24:07;;;;;;;11.95;6.53;;;;;;;-146.27;85.38;83465.06;5018410;28;20029;-70
2023/10/25 05:26:33;;;;;;;11.57;6.40;;;;;;;-146.27;85.44;83473.09;5033481;28;20059;-70
2023/10/25 05:28:59;;;;;;;17.15;6.45;;;;;;;-146.27;85.51;83453.00;5029122;28;20536;-71
2023/10/25 05:31:26;;;;;;;19.98;6.78;;;;;;;-146.27;85.64;83457.03;5036192;28;20036;-70
2023/10/25 05:33:52;;;;;;;16.17;6.25;;;;;;;-146.27;85.64;83440.94;5029467;28;20057;-71
2023/10/25 05:36:18;;;;;;;15.20;6.50;;;;;;;-146.27;85.64;83442.97;5027603;28;20500;-70
2023/10/25 05:38:44;;;;;;;12.73;7.20;;;;;;;-146.27;85.97;83449.00;5046038;28;20036;-70
2023/10/25 05:41:15;;;;;;;14.85;6.90;;;;;;;-146.27;86.25;83505.25;5028869;28;20482;-70
2023/10/25 05:43:42;;;;;;;15.85;6.45;;;;;;;-146.27;86.13;83465.06;5024250;28;20025;-71
2023/10/25 05:46:08;;;;;;;10.15;6.25;;;;;;;-146.27;85.88;83453.00;5027425;28;20051;-71
2023/10/25 05:48:33;;;;;;;11.30;6.18;;;;;;;-146.27;85.79;83404.78;5030781;28;20533;-70
2023/10/25 05:51:04;;;;;;;13.18;5.88;;;;;;;-146.27;85.91;83465.06;5027545;28;20584;-79
2023/10/25 05:53:30;;;;;;;13.00;5.97;;;;;;;-146.27;85.99;83428.91;5040933;28;20037;-71
2023/10/25 05:55:56;;;;;;;12.13;5.78;;;;;;;-146.27;85.92;83459.03;5031300;28;20469;-70
2023/10/25 05:58:21;;;;;;;16.52;6.10;;;;;;;-146.27;86.08;83440.94;5040324;28;20074;-70
2023/10/25 06:00:52;;;;;;;10.27;5.85;;;;;;;-146.27;86.31;83453.00;5024651;28;20492;-70
2023/10/25 06:03:20;;;;;;;13.27;5.35;;;;;;;-146.27;86.26;83451.00;5028663;28;20026;-71
2023/10/25 06:05:50;;;;;;;10.85;5.72;;;;;;;-146.27;86.21;83420.88;5020087;28;20397;-72
2023/10/25 06:08:15;;;;;;;9.65;5.80;;;;;;;-146.27;86.24;83469.09;5023647;28;20509;-70
2023/10/25 06:10:41;;;;;;;7.85;5.03;;;;;;;-146.27;86.29;83388.72;5027768;28;20017;-70
2023/10/25 06:13:07;;;;;;;7.63;5.28;;;;;;;-146.27;86.36;83517.31;5028415;28;20025;-70
2023/10/25 06:15:32;;;;;;;8.55;5.05;;;;;;;-146.27;86.41;83442.97;5041289;28;20107;-77
2023/10/25 06:17:58;;;;;;;9.88;5.40;;;;;;;-146.27;86.72;83414.84;5038747;28;20029;-75
2023/10/25 06:20:23;;;;;;;7.07;4.82;;;;;;;-146.27;86.62;83418.84;5034363;28;20067;-80
2023/10/25 06:22:49;;;;;;;13.68;6.15;;;;;;;-146.27;86.43;83392.72;5037338;28;20036;-78
2023/10/25 06:25:14;;;;;;;11.23;5.30;;;;;;;-146.27;86.20;83384.69;5027878;28;20065;-78
2023/10/25 06:27:39;;;;;;;6.85;5.15;;;;;;;-146.27;86.40;83390.72;5028659;28;20025;-79
2023/10/25 06:30:06;;;;;;;12.00;5.60;;;;;;;-146.27;86.46;83416.84;5032909;28;20033;-78
2023/10/25 06:32:33;;;;;;;10.40;5.20;;;;;;;-146.27;86.62;83416.84;5033139;28;20440;-79
2023/10/25 06:34:58;;;;;;;15.05;6.05;;;;;;;-146.27;86.82;83372.63;5036535;28;20100;-79
2023/10/25 06:37:24;;;;;;;11.38;5.18;;;;;;;-146.27;86.85;83416.84;5038535;28;20025;-79
2023/10/25 06:39:49;;;;;;;10.80;4.72;;;;;;;-146.27;86.99;83428.91;5022262;28;20026;-80
2023/10/25 06:42:15;;;;;;;10.73;6.03;;;;;;;-146.27;87.16;83428.91;5026397;28;20375;-78
2023/10/25 06:44:42;;;;;;;11.73;5.13;;;;;;;-146.27;87.15;83430.91;5028825;28;20091;-78
2023/10/25 06:47:09;;;;;;;13.00;5.93;;;;;;;-146.27;87.21;83412.81;5031730;28;20037;-74
2023/10/25 06:49:35;;;;;;;9.20;5.47;;;;;;;-146.27;87.26;83446.97;5022327;28;20013;-77
2023/10/25 06:52:01;;;;;;;8.25;5.25;;;;;;;-146.27;87.38;83406.78;5037551;28;20025;-81
2023/10/25 06:54:27;;;;;;;13.23;5.53;;;;;;;-146.27;87.14;83430.91;5028630;28;20029;-80
2023/10/25 06:56:53;;;;;;;8.90;5.72;;;;;;;-146.27;87.25;83404.78;5032247;28;20041;-80
2023/10/25 06:59:19;;;;;;;11.48;6.05;;;;;;;-146.27;87.35;83404.78;5033134;28;20036;-79
2023/10/25 07:01:47;;;;;;;9.68;4.68;;;;;;;-146.27;87.42;83408.81;5032888;28;20064;-79
2023/10/25 07:04:16;;;;;;;14.50;5.28;;;;;;;-146.27;87.37;83414.84;5031715;28;20028;-81
2023/10/25 07:06:45;;;;;;;8.50;5.18;;;;;;;-146.27;87.50;83388.72;5035951;28;20037;-79
2023/10/25 07:09:11;;;;;;;11.50;4.60;;;;;;;-146.27;87.35;83370.63;5031842;28;20040;-81
2023/10/25 07:11:36;;;;;;;11.15;5.53;;;;;;;-146.27;87.24;83380.69;5031144;28;20025;-79
2023/10/25 07:14:02;;;;;;;14.52;5.30;;;;;;;-146.27;87.35;83372.63;5033261;28;20091;-80
2023/10/25 07:16:28;;;;;;;11.60;5.53;;;;;;;-146.27;87.50;83424.88;5043854;28;20063;-80
2023/10/25 07:18:53;;;;;;;12.20;5.60;;;;;;;-146.27;87.56;83368.63;5039956;28;20029;-79
2023/10/25 07:21:19;;;;;;;12.00;5.20;;;;;;;-146.27;87.37;83388.72;5037104;28;20064;-80
2023/10/25 07:23:44;;;;;;;14.38;5.03;;;;;;;-146.27;87.30;83402.78;5030521;28;20033;-80
2023/10/25 07:26:09;;;;;;;9.05;4.78;;;;;;;-146.27;87.33;83344.50;5030446;28;20021;-79
2023/10/25 07:28:35;;;;;;;7.30;4.95;;;;;;;-146.27;87.26;83366.59;5029841;28;20026;-79
2023/10/25 07:31:00;;;;;;;13.98;5.45;;;;;;;-146.27;87.19;83356.56;5040395;28;20456;-79
2023/10/25 07:33:25;;;;;;;11.90;5.38;;;;;;;-146.27;87.32;83358.56;5032609;28;20033;-80
2023/10/25 07:35:51;;;;;;;8.95;5.05;;;;;;;-146.27;87.34;83360.59;5031533;28;20107;-79
2023/10/25 07:38:16;;;;;;;14.48;5.13;;;;;;;-146.27;87.01;83346.53;5033291;28;20040;-79
2023/10/25 07:40:42;;;;;;;18.27;6.13;;;;;;;-146.27;86.94;83372.63;5032742;28;20037;-78
2023/10/25 07:43:08;;;;;;;9.18;5.10;;;;;;;-146.27;86.81;83346.53;5048634;28;20024;-80
2023/10/25 07:45:34;;;;;;;9.10;5.22;;;;;;;-146.27;86.67;83342.50;5032100;28;20029;-80
2023/10/25 07:47:59;;;;;;;11.50;5.00;;;;;;;-146.27;86.89;83328.44;5033727;28;20703;-78
2023/10/25 07:50:24;;;;;;;16.63;5.75;;;;;;;-146.27;86.52;83316.38;5021583;28;20025;-78
2023/10/25 07:52:51;;;;;;;10.40;4.88;;;;;;;-146.27;86.52;83316.38;5032917;28;20060;-79
2023/10/25 07:55:16;;;;;;;6.38;4.50;;;;;;;-146.27;86.55;83310.34;5032306;28;20113;-79
2023/10/25 07:57:42;;;;;;;12.95;5.88;;;;;;;-146.27;86.42;83284.22;5023992;28;20035;-79
2023/10/25 08:00:09;;;;;;;9.75;5.25;;;;;;;-146.27;86.26;83332.44;5030629;28;20033;-79
2023/10/25 08:02:35;;;;;;;10.57;4.72;;;;;;;-146.27;86.15;83280.22;5029619;28;20079;-79
2023/10/25 08:05:01;;;;;;;19.88;5.03;;;;;;;-146.27;86.08;83292.28;5032062;28;20045;-78
2023/10/25 08:07:26;;;;;;;17.65;4.80;;;;;;;-146.27;85.98;83302.31;5040002;28;20056;-79
2023/10/25 08:09:52;;;;;;;9.80;4.47;;;;;;;-146.27;85.83;83292.28;5036714;28;20021;-80
2023/10/25 08:12:18;;;;;;;9.00;4.03;;;;;;;-146.27;85.75;83288.25;5031317;28;20028;-79
2023/10/25 08:14:44;;;;;;;8.60;4.30;;;;;;;-146.27;85.64;83290.25;5029502;28;20473;-80
2023/10/25 08:17:09;;;;;;;9.52;4.90;;;;;;;-146.27;85.59;83298.28;5024317;28;20095;-80
2023/10/25 08:19:34;;;;;;;11.00;4.07;;;;;;;-146.27;85.46;83268.16;5015395;28;20121;-75
2023/10/25 08:22:00;;;;;;;10.95;4.18;;;;;;;-146.27;85.36;83264.13;5013903;28;20053;-75
2023/10/25 08:24:26;;;;;;;6.50;4.10;;;;;;;-146.27;85.29;83282.22;5029183;28;20029;-79
2023/10/25 08:26:55;;;;;;;7.18;4.15;;;;;;;-146.27;85.40;83203.88;5014902;28;20386;-78
2023/10/25 08:29:20;;;;;;;11.63;4.63;;;;;;;-146.27;85.27;83274.19;5037228;28;20029;-80
2023/10/25 08:31:46;;;;;;;7.57;4.13;;;;;;;-146.27;85.24;83272.19;5030228;28;20500;-80
2023/10/25 08:34:12;;;;;;;8.20;3.83;;;;;;;-146.27;85.15;83264.13;5030554;28;20032;-79
2023/10/25 08:36:38;;;;;;;7.22;3.90;;;;;;;-146.27;84.96;83314.38;5030856;28;20033;-78
2023/10/25 08:39:04;;;;;;;6.18;3.72;;;;;;;-146.27;85.12;83294.28;5031061;28;20030;-77
2023/10/25 08:41:30;;;;;;;8.15;3.65;;;;;;;-146.27;85.26;83260.13;5032081;28;20049;-78
2023/10/25 08:43:57;;;;;;;9.38;4.13;;;;;;;-146.27;85.29;83284.22;5029051;28;20021;-77
2023/10/25 08:46:33;;;;;;;8.25;4.10;;;;;;;-146.27;85.42;83232.00;5028109;28;20036;-78
2023/10/25 08:48:59;;;;;;;7.78;4.20;;;;;;;-146.27;85.32;83264.13;5045438;28;20021;-77
2023/10/25 08:51:25;;;;;;;8.30;4.10;;;;;;;-146.27;85.07;83256.09;5033066;28;20037;-77
2023/10/25 08:53:52;;;;;;;13.85;4.18;;;;;;;-146.27;85.24;83246.06;5011741;28;20028;-77
2023/10/25 08:56:17;;;;;;;10.20;3.95;;;;;;;-146.27;85.35;83300.31;5018672;28;20032;-77
2023/10/25 08:58:43;;;;;;;9.23;3.80;;;;;;;-146.27;85.56;83290.25;5036818;28;20115;-78
2023/10/25 09:01:08;;;;;;;8.70;4.55;;;;;;;-146.27;85.44;83240.03;5033372;28;20029;-78
2023/10/25 09:03:41;;;;;;;9.88;3.38;;;;;;;-146.27;85.72;83286.25;5023577;28;20029;-76
2023/10/25 09:06:08;;;;;;;14.70;4.70;;;;;;;-146.27;85.75;83284.22;5021223;28;20382;-78
2023/10/25 09:08:35;;;;;;;18.83;3.70;;;;;;;-146.27;85.91;83324.41;5044873;28;20038;-78
2023/10/25 09:11:03;;;;;;;6.28;3.80;;;;;;;-146.27;86.03;83276.19;5032620;28;20083;-78
2023/10/25 09:13:30;;;;;;;7.85;4.28;;;;;;;-146.27;86.23;83272.19;5036563;28;20033;-76
2023/10/25 09:16:06;;;;;;;11.05;3.97;;;;;;;-146.27;86.31;83256.09;5030433;28;20111;-80
2023/10/25 09:18:33;;;;;;;6.30;3.63;;;;;;;-146.27;86.64;83276.19;5028141;28;20030;-75
2023/10/25 09:20:59;;;;;;;10.57;4.10;;;;;;;-146.27;86.70;83270.16;5034317;28;20025;-76
2023/10/25 09:23:25;;;;;;;11.25;3.35;;;;;;;-146.27;86.62;83264.13;5045762;28;20570;-76
2023/10/25 09:25:51;;;;;;;6.25;3.78;;;;;;;-146.27;86.87;83280.22;5034344;28;20030;-77
2023/10/25 09:28:27;;;;;;;7.00;3.83;;;;;;;-146.27;87.18;83264.13;5037597;28;20040;-77
2023/10/25 09:31:00;;;;;;;7.18;4.97;;;;;;;-146.27;87.31;83248.06;5031224;28;20542;-76
2023/10/25 09:33:30;;;;;;;12.32;4.55;;;;;;;-146.27;87.50;83264.13;5026538;28;20078;-77
2023/10/25 09:35:56;;;;;;;8.32;3.90;;;;;;;-146.27;87.35;83296.28;5029028;28;20025;-76
2023/10/25 09:38:22;;;;;;;7.63;3.80;;;;;;;-146.27;87.32;83266.16;5028371;28;20090;-77
2023/10/25 09:40:49;;;;;;;8.82;4.88;;;;;;;-146.27;87.42;83246.06;5030527;28;20104;-77
2023/10/25 09:43:20;;;;;;;10.73;4.35;;;;;;;-146.27;87.42;83264.13;5030547;28;20127;-78
2023/10/25 09:45:52;;;;;;;8.73;4.47;;;;;;;-146.27;87.78;83236.00;5023343;28;20140;-71
2023/10/25 09:48:19;;;;;;;11.40;3.95;;;;;;;-146.27;87.72;83260.13;5036524;28;20029;-70
2023/10/25 09:51:08;;;;;;;11.43;4.65;;;;;;;-146.27;87.70;83238.03;5011649;28;20018;-78
2023/10/25 09:54:09;;;;;;;16.35;4.88;;;;;;;-146.27;87.90;83264.13;5008986;28;20040;-79
2023/10/25 09:56:35;;;;;;;8.70;4.25;;;;;;;-146.27;87.81;83227.97;5024891;28;20563;-78
2023/10/25 09:59:03;;;;;;;8.23;4.47;;;;;;;-146.27;88.07;83270.16;5022403;28;20030;-79
2023/10/25 10:01:29;;;;;;;11.07;4.57;;;;;;;-146.27;88.08;83213.91;5022852;28;20076;-78
2023/10/25 10:04:14;;;;;;;11.90;5.20;;;;;;;-146.27;88.11;83229.97;5013457;28;20543;-77
2023/10/25 10:06:49;;;;;;;14.52;5.38;;;;;;;-146.27;88.10;83270.16;5010834;28;20022;-78
2023/10/25 10:09:33;;;;;;;6.82;4.43;;;;;;;-146.27;88.29;83262.13;5010614;28;20026;-77
2023/10/25 10:12:07;;;;;;;13.00;6.18;;;;;;;-146.27;88.51;83280.22;5012973;28;20026;-78
2023/10/25 10:14:35;;;;;;;10.98;5.18;;;;;;;-146.27;88.69;83296.28;5010339;28;20045;-77
2023/10/25 10:17:03;;;;;;;10.63;5.68;;;;;;;-146.27;88.81;83244.03;5028543;28;20128;-77
2023/10/25 10:19:37;;;;;;;9.55;5.40;;;;;;;-146.27;88.78;83234.00;5028945;28;20124;-75
2023/10/25 10:22:04;;;;;;;;;;;;;;;-146.27;88.88;83256.09;5029619;28;20025;-77
2023/10/25 10:24:43;;;;;;;8.90;5.40;;;;;;;-146.27;88.72;83276.19;5017166;28;20366;-77
2023/10/25 10:27:10;;;;;;;13.77;5.97;;;;;;;-146.27;89.00;83252.09;5029687;28;20060;-76
2023/10/25 10:29:37;;;;;;;11.23;5.53;;;;;;;-146.27;88.78;83264.13;5014365;28;20030;-78
2023/10/25 10:32:04;;;;;;;11.00;5.65;;;;;;;-146.27;88.67;83250.06;5024355;28;20033;-78
2023/10/25 10:34:57;;;;;;;10.95;6.43;;;;;;;-146.27;88.98;83278.19;5023920;28;20109;-78
2023/10/25 10:37:24;;;;;;;12.70;6.57;;;;;;;-146.27;88.98;83288.25;5015495;28;20421;-76
2023/10/25 10:39:55;;;;;;;15.52;6.35;;;;;;;-146.27;89.28;83282.22;5019998;28;20030;-78
2023/10/25 10:42:28;;;;;;;10.55;5.78;;;;;;;-146.27;89.01;83264.13;5022367;28;20128;-76
2023/10/25 10:45:20;;;;;;;11.93;6.40;;;;;;;-146.27;89.12;83260.13;5032344;28;20029;-78
2023/10/25 10:47:55;;;;;;;12.95;6.45;;;;;;;-146.27;89.35;83276.19;5026739;28;20387;-79
2023/10/25 10:50:23;;;;;;;11.27;5.75;;;;;;;-146.27;89.20;83240.03;5029538;28;20025;-80
2023/10/25 10:52:51;;;;;;;13.30;6.35;;;;;;;-146.27;89.08;83268.16;5026363;28;20064;-78
2023/10/25 10:55:21;;;;;;;11.35;6.85;;;;;;;-146.27;89.13;83252.09;5039251;28;20044;-78
2023/10/25 10:57:47;;;;;;;15.88;6.80;;;;;;;-146.27;88.99;83215.91;5023943;28;20014;-78
2023/10/25 11:00:16;;;;;;;13.07;6.75;;;;;;;-146.27;89.45;83262.13;5020790;28;20037;-78
2023/10/25 11:02:45;;;;;;;9.43;6.55;;;;;;;-146.27;89.90;83288.25;5022312;28;20052;-78
2023/10/25 11:05:13;;;;;;;11.18;6.85;;;;;;;-146.27;90.33;83284.22;5020866;28;20022;-77
2023/10/25 11:07:38;;;;;;;12.13;7.75;;;;;;;-146.27;89.97;83292.28;5027280;28;20137;-77
2023/10/25 11:10:04;;;;;;;16.25;7.45;;;;;;;-146.27;89.69;83272.19;5035161;28;20108;-77
2023/10/25 11:12:29;;;;;;;13.63;8.02;;;;;;;-146.27;89.84;83262.13;5052536;28;20031;-77